Time;durP1;ratioP1;P1;durP2;ratioP2;P2;SDS_P1;SDS_P2;PMS_P1;PMS_P2;Temp;Humidity;BMP_temperature;BMP_pressure;BME280_temperature;BME280_humidity;BME280_pressure;Samples;Min_cycle;Max_cycle;Signal;HPM_P1;HPM_P2
2022/04/01 00:00:41;;;;;;;14.77;11.83;;;7.80;99.90;;;;;;5071010;28;20882;-44
2022/04/01 00:03:09;;;;;;;18.30;12.90;;;7.90;99.90;;;;;;5071326;28;20452;-47
2022/04/01 00:05:39;;;;;;;13.47;11.93;;;7.90;99.90;;;;;;5070967;28;20451;-44
2022/04/01 00:08:06;;;;;;;16.43;13.93;;;7.90;99.90;;;;;;5070999;28;20468;-45
2022/04/01 00:10:33;;;;;;;15.90;13.10;;;7.90;99.90;;;;;;5070753;28;21004;-45
2022/04/01 00:13:00;;;;;;;14.60;12.30;;;8.00;99.90;;;;;;5071258;28;20816;-44
2022/04/01 00:15:27;;;;;;;13.53;12.13;;;8.00;99.90;;;;;;5070932;28;20972;-47
2022/04/01 00:17:56;;;;;;;16.67;12.47;;;7.90;99.90;;;;;;5071224;28;20479;-45
2022/04/01 00:20:23;;;;;;;15.57;13.10;;;7.90;99.90;;;;;;5072505;28;20479;-44
2022/04/01 00:22:51;;;;;;;13.63;12.20;;;8.00;99.90;;;;;;5075022;28;20527;-47
2022/04/01 00:25:19;;;;;;;15.80;12.07;;;8.00;99.90;;;;;;5075172;28;20534;-46
2022/04/01 00:27:46;;;;;;;15.07;11.90;;;8.10;99.90;;;;;;5075136;28;20847;-48
2022/04/01 00:30:13;;;;;;;14.33;12.13;;;8.10;99.90;;;;;;5074717;28;20862;-45
2022/04/01 00:32:40;;;;;;;16.00;12.27;;;8.10;99.90;;;;;;5074492;28;20479;-45
2022/04/01 00:35:07;;;;;;;14.17;11.73;;;8.20;99.90;;;;;;5074725;28;20471;-45
2022/04/01 00:37:34;;;;;;;13.80;11.97;;;8.20;99.90;;;;;;5074972;28;20512;-46
2022/04/01 00:40:03;;;;;;;12.37;11.07;;;8.30;99.90;;;;;;5074565;28;20870;-44
2022/04/01 00:42:30;;;;;;;12.37;10.47;;;8.30;99.90;;;;;;5074732;28;20523;-44
2022/04/01 00:44:58;;;;;;;13.13;11.03;;;8.40;99.90;;;;;;5074432;28;20450;-45
2022/04/01 00:47:26;;;;;;;16.23;11.70;;;8.40;99.90;;;;;;5074582;28;20451;-46
2022/04/01 00:49:54;;;;;;;13.37;10.60;;;8.40;99.90;;;;;;5074152;28;20479;-44
2022/04/01 00:52:22;;;;;;;14.60;11.17;;;8.40;99.90;;;;;;5074548;28;20527;-44
2022/04/01 00:54:50;;;;;;;14.57;11.70;;;8.40;99.90;;;;;;5074257;28;20451;-45
2022/04/01 00:57:19;;;;;;;12.57;10.40;;;8.40;99.90;;;;;;5074249;28;20571;-45
2022/04/01 00:59:47;;;;;;;14.03;11.70;;;8.40;99.90;;;;;;5073805;28;20447;-45
2022/04/01 01:02:16;;;;;;;12.30;11.00;;;8.40;99.90;;;;;;5073978;28;20464;-45
2022/04/01 01:04:44;;;;;;;11.53;10.30;;;8.50;99.90;;;;;;5074502;28;20926;-44
2022/04/01 01:07:11;;;;;;;14.33;11.17;;;8.50;99.90;;;;;;5074136;28;20942;-45
2022/04/01 01:09:38;;;;;;;15.03;10.10;;;8.50;99.90;;;;;;5073866;28;20857;-47
2022/04/01 01:12:06;;;;;;;12.07;10.60;;;8.50;99.90;;;;;;5074006;28;20484;-48
2022/04/01 01:14:36;;;;;;;14.43;12.30;;;8.50;99.90;;;;;;5074456;28;20502;-45
2022/04/01 01:17:06;;;;;;;14.20;10.33;;;8.50;99.90;;;;;;5074360;28;20533;-45
2022/04/01 01:19:33;;;;;;;12.30;10.03;;;8.40;99.90;;;;;;5073903;28;20467;-44
2022/04/01 01:22:00;;;;;;;14.33;9.93;;;8.50;99.90;;;;;;5128804;22;20574;-43
2022/04/01 01:24:31;;;;;;;11.03;9.83;;;8.50;99.90;;;;;;5074054;28;20518;-43
2022/04/01 01:26:59;;;;;;;12.60;10.17;;;8.50;99.90;;;;;;5073811;28;20447;-45
2022/04/01 01:29:27;;;;;;;11.20;8.97;;;8.50;99.90;;;;;;5073502;28;20523;-47
2022/04/01 01:31:55;;;;;;;11.50;9.87;;;8.40;99.90;;;;;;5072222;28;20452;-44
2022/04/01 01:34:22;;;;;;;10.97;9.57;;;8.40;99.90;;;;;;5073972;28;20437;-43
2022/04/01 01:36:50;;;;;;;12.40;10.17;;;8.30;99.90;;;;;;5073804;28;20472;-43
2022/04/01 01:39:17;;;;;;;11.13;9.57;;;8.40;99.90;;;;;;5073301;28;20527;-43
2022/04/01 01:41:46;;;;;;;14.50;9.50;;;8.30;99.90;;;;;;5073740;28;20496;-44
2022/04/01 01:44:13;;;;;;;10.20;8.83;;;8.40;99.90;;;;;;5073528;28;20522;-44
2022/04/01 01:46:40;;;;;;;13.13;9.50;;;8.40;99.90;;;;;;5073689;28;20460;-43
2022/04/01 01:49:08;;;;;;;11.30;10.20;;;8.30;99.90;;;;;;5073349;28;20863;-44
2022/04/01 01:57:05;;;;;;;11.40;9.37;;;8.10;99.90;;;;;;5073379;28;20471;-43
2022/04/01 01:59:33;;;;;;;11.70;10.20;;;8.10;99.90;;;;;;5073126;28;20539;-43
2022/04/01 02:02:03;;;;;;;12.40;10.43;;;8.00;99.90;;;;;;5073240;28;20996;-44
2022/04/01 02:04:30;;;;;;;10.70;8.67;;;8.00;99.90;;;;;;5073551;28;20448;-46
2022/04/01 02:06:57;;;;;;;10.53;8.93;;;8.10;99.90;;;;;;5073575;28;20544;-44
2022/04/01 02:09:24;;;;;;;10.23;9.23;;;8.10;99.90;;;;;;5073046;28;20472;-44
2022/04/01 02:11:51;;;;;;;13.87;9.97;;;8.10;99.90;;;;;;5072848;28;20556;-44
2022/04/01 02:14:20;;;;;;;10.70;9.30;;;8.20;99.90;;;;;;5073132;28;20446;-47
2022/04/01 02:16:47;;;;;;;10.97;8.70;;;8.30;99.90;;;;;;5072970;28;20504;-45
2022/04/01 02:19:20;;;;;;;10.60;9.50;;;8.30;99.90;;;;;;5072824;28;20444;-44
2022/04/01 02:21:48;;;;;;;10.30;9.00;;;8.30;99.90;;;;;;5072679;28;20563;-44
2022/04/01 02:24:17;;;;;;;11.73;9.27;;;8.30;99.90;;;;;;5072829;28;20451;-45
2022/04/01 02:26:45;;;;;;;10.80;8.83;;;8.40;99.90;;;;;;5072737;28;20463;-46
2022/04/01 02:29:12;;;;;;;10.53;8.27;;;8.30;99.90;;;;;;5072391;28;20484;-44
2022/04/01 02:31:42;;;;;;;9.00;8.10;;;8.40;99.90;;;;;;5072572;28;20502;-43
2022/04/01 02:34:08;;;;;;;10.03;9.03;;;8.40;99.90;;;;;;5072726;28;20527;-43
2022/04/01 02:36:36;;;;;;;9.30;7.73;;;8.40;99.90;;;;;;5072340;28;20504;-43
2022/04/01 02:39:03;;;;;;;9.10;8.20;;;8.40;99.90;;;;;;5072446;28;20444;-44
2022/04/01 02:41:31;;;;;;;9.50;8.50;;;8.40;99.90;;;;;;5072235;28;21022;-44
2022/04/01 02:44:08;;;;;;;9.87;8.33;;;8.40;99.90;;;;;;5072031;28;20498;-44
2022/04/01 02:46:36;;;;;;;9.93;7.90;;;8.40;99.90;;;;;;5072419;28;20447;-45
2022/04/01 02:49:06;;;;;;;9.70;7.47;;;8.30;99.90;;;;;;5072073;28;20472;-44
2022/04/01 02:51:36;;;;;;;9.57;8.37;;;8.30;99.90;;;;;;5072193;28;20467;-45
2022/04/01 02:54:04;;;;;;;10.87;8.83;;;8.30;99.90;;;;;;5072447;28;20454;-44
2022/04/01 02:56:32;;;;;;;9.30;7.43;;;8.30;99.90;;;;;;5072052;28;21015;-44
2022/04/01 02:58:59;;;;;;;10.87;8.10;;;8.30;99.90;;;;;;5072068;28;20865;-40
2022/04/01 03:01:26;;;;;;;9.90;7.60;;;8.30;99.90;;;;;;5071700;28;20547;-45
2022/04/01 03:03:53;;;;;;;9.37;8.43;;;8.30;99.90;;;;;;5072498;28;20469;-47
2022/04/01 03:06:22;;;;;;;9.90;8.00;;;8.30;99.90;;;;;;5071992;28;20531;-44
2022/04/01 03:08:49;;;;;;;10.50;7.87;;;8.30;99.90;;;;;;5072257;28;20469;-44
2022/04/01 03:11:16;;;;;;;9.63;7.53;;;8.30;99.90;;;;;;5071856;28;20464;-45
2022/04/01 03:13:43;;;;;;;8.00;6.70;;;8.30;99.90;;;;;;5071751;28;20870;-44
2022/04/01 03:16:11;;;;;;;8.53;6.40;;;8.20;99.90;;;;;;5071783;28;20926;-44
2022/04/01 03:18:40;;;;;;;8.30;7.03;;;8.30;99.90;;;;;;5071670;28;20444;-46
2022/04/01 03:21:09;;;;;;;9.07;7.40;;;8.40;99.90;;;;;;5071269;28;20472;-44
2022/04/01 03:23:39;;;;;;;9.13;6.97;;;8.40;99.90;;;;;;5071670;28;20444;-42
2022/04/01 03:26:06;;;;;;;7.07;6.00;;;8.40;99.90;;;;;;5071639;28;20476;-44
2022/04/01 03:28:34;;;;;;;7.20;6.10;;;8.30;99.90;;;;;;5071758;28;20468;-45
2022/04/01 03:31:03;;;;;;;6.93;6.33;;;8.30;99.90;;;;;;5070989;28;20475;-44
2022/04/01 03:33:30;;;;;;;7.90;6.27;;;8.30;99.90;;;;;;5071908;28;20451;-43
2022/04/01 03:35:57;;;;;;;5.93;5.33;;;8.30;99.90;;;;;;5071558;28;20465;-43
2022/04/01 03:38:24;;;;;;;7.00;6.10;;;8.20;99.90;;;;;;5071312;28;20558;-44
2022/04/01 03:40:53;;;;;;;8.57;6.00;;;8.20;99.90;;;;;;5071228;28;20552;-43
2022/04/01 03:43:21;;;;;;;6.13;4.60;;;8.20;99.90;;;;;;5071306;28;20475;-44
2022/04/01 03:45:50;;;;;;;6.23;5.73;;;8.20;99.90;;;;;;5071752;28;20454;-45
2022/04/01 03:48:24;;;;;;;6.60;5.40;;;8.20;99.90;;;;;;5071448;28;20471;-44
2022/04/01 03:50:55;;;;;;;7.47;5.20;;;8.20;99.90;;;;;;5071041;28;20542;-44
2022/04/01 03:53:26;;;;;;;6.27;5.13;;;8.20;99.90;;;;;;5071252;28;20536;-43
2022/04/01 03:55:55;;;;;;;6.07;4.93;;;8.10;99.90;;;;;;5071158;28;20444;-45
2022/04/01 03:58:28;;;;;;;6.23;4.87;;;8.10;99.90;;;;;;5071364;28;20482;-44
2022/04/01 04:00:56;;;;;;;6.53;4.77;;;8.10;99.90;;;;;;5070986;28;20471;-45
2022/04/01 04:03:23;;;;;;;5.80;4.37;;;8.20;99.90;;;;;;5071176;28;20540;-43
2022/04/01 04:05:51;;;;;;;5.00;4.30;;;8.20;99.90;;;;;;5071142;28;20483;-44
2022/04/01 04:08:20;;;;;;;5.40;4.40;;;8.10;99.90;;;;;;5071044;28;20445;-44
2022/04/01 04:10:48;;;;;;;3.40;3.10;;;8.20;99.90;;;;;;5070975;28;20460;-43
2022/04/01 04:13:17;;;;;;;3.20;2.90;;;8.10;99.90;;;;;;5071130;28;20444;-43
2022/04/01 04:15:49;;;;;;;3.87;2.80;;;8.10;99.90;;;;;;5071260;28;20472;-47
2022/04/01 04:18:18;;;;;;;2.57;2.10;;;8.10;99.90;;;;;;5071303;28;20550;-46
2022/04/01 04:20:56;;;;;;;3.30;2.40;;;7.70;99.90;;;;;;5070866;28;20510;-44
2022/04/01 04:23:26;;;;;;;1.50;1.37;;;7.50;99.90;;;;;;5070969;28;20450;-43
2022/04/01 04:26:01;;;;;;;0.90;0.73;;;7.40;99.90;;;;;;5071109;28;20861;-43
2022/04/01 04:28:35;;;;;;;1.13;1.00;;;7.40;99.90;;;;;;5071045;28;20440;-44
2022/04/01 04:31:07;;;;;;;1.43;1.20;;;7.30;99.90;;;;;;5070646;28;20499;-43
2022/04/01 04:33:36;;;;;;;1.53;1.37;;;7.00;99.90;;;;;;5070716;28;20440;-43
2022/04/01 04:36:05;;;;;;;1.70;1.20;;;6.80;99.90;;;;;;5070774;28;20452;-47
2022/04/01 04:38:38;;;;;;;1.30;1.20;;;6.70;99.90;;;;;;5070854;28;20563;-43
2022/04/01 04:41:08;;;;;;;1.03;0.90;;;6.70;99.90;;;;;;5070538;28;20488;-44
2022/04/01 04:43:41;;;;;;;1.47;1.10;;;6.70;99.90;;;;;;5071190;28;20453;-43
2022/04/01 04:46:09;;;;;;;1.10;1.00;;;6.60;99.90;;;;;;5070966;28;20528;-44
2022/04/01 04:48:37;;;;;;;1.67;1.43;;;6.50;99.90;;;;;;5070859;28;20440;-47
2022/04/01 04:51:05;;;;;;;1.37;1.27;;;6.50;99.90;;;;;;5070456;28;20556;-46
2022/04/01 04:53:34;;;;;;;1.53;1.27;;;6.50;99.90;;;;;;5070877;28;20442;-47
2022/04/01 04:56:02;;;;;;;1.10;0.80;;;6.40;99.90;;;;;;5070629;28;20501;-43
2022/04/01 04:58:32;;;;;;;0.90;0.67;;;6.40;99.90;;;;;;5070665;28;20476;-43
2022/04/01 05:01:03;;;;;;;1.00;0.90;;;6.50;99.90;;;;;;5070407;28;20552;-45
2022/04/01 05:03:54;;;;;;;1.00;0.90;;;6.50;99.90;;;;;;5070906;28;20519;-43
2022/04/01 05:06:28;;;;;;;1.23;1.00;;;6.40;99.90;;;;;;5072340;28;20475;-43
2022/04/01 05:09:01;;;;;;;0.97;0.90;;;6.20;99.90;;;;;;5074333;28;20444;-43
2022/04/01 05:11:42;;;;;;;1.20;0.97;;;6.30;99.90;;;;;;5074215;28;20463;-43
2022/04/01 05:14:30;;;;;;;1.00;0.90;;;6.30;99.90;;;;;;5074432;28;20440;-45
2022/04/01 05:17:03;;;;;;;0.83;0.80;;;6.20;99.90;;;;;;5071836;28;20560;-43
2022/04/01 05:19:31;;;;;;;1.13;1.03;;;6.20;99.90;;;;;;5074084;28;20476;-43
2022/04/01 05:22:02;;;;;;;0.97;0.87;;;6.20;99.90;;;;;;5074129;28;20471;-46
2022/04/01 05:24:37;;;;;;;1.00;0.90;;;6.20;99.90;;;;;;5074072;28;21006;-43
2022/04/01 05:27:07;;;;;;;1.00;0.97;;;6.20;99.90;;;;;;5073974;28;20428;-46
2022/04/01 05:29:42;;;;;;;1.00;0.90;;;6.20;99.90;;;;;;5073946;28;20444;-43
2022/04/01 05:32:11;;;;;;;0.80;0.80;;;6.20;99.90;;;;;;5074131;28;20547;-45
2022/04/01 05:34:42;;;;;;;0.90;0.80;;;6.20;99.90;;;;;;5073951;28;20445;-43
2022/04/01 05:37:09;;;;;;;1.10;0.70;;;6.20;99.90;;;;;;5073601;28;20448;-43
2022/04/01 05:39:37;;;;;;;0.70;0.63;;;6.20;99.90;;;;;;5074074;28;20440;-43
2022/04/01 05:42:06;;;;;;;0.77;0.77;;;6.20;99.90;;;;;;5073491;28;20535;-43
2022/04/01 05:44:35;;;;;;;1.07;0.97;;;6.10;99.90;;;;;;5073957;28;20535;-45
2022/04/01 05:47:02;;;;;;;1.20;0.87;;;6.20;99.90;;;;;;5073814;28;20448;-47
2022/04/01 05:49:31;;;;;;;1.30;1.07;;;6.20;99.90;;;;;;5073379;28;20471;-43
2022/04/01 05:51:59;;;;;;;1.97;1.77;;;6.10;99.90;;;;;;5073624;28;20492;-43
2022/04/01 05:54:27;;;;;;;1.80;1.67;;;6.20;99.90;;;;;;5073782;28;20440;-43
2022/04/01 05:56:54;;;;;;;3.90;2.20;;;6.30;99.90;;;;;;5073557;28;20470;-45
2022/04/01 05:59:23;;;;;;;3.80;1.70;;;6.20;99.90;;;;;;5073409;28;20559;-43
2022/04/01 06:01:59;;;;;;;1.63;1.50;;;6.20;99.90;;;;;;5073066;28;20903;-43
2022/04/01 06:04:55;;;;;;;2.23;2.03;;;6.20;99.90;;;;;;5073434;28;20468;-43
2022/04/01 06:07:29;;;;;;;1.97;1.27;;;6.30;99.90;;;;;;5073567;28;20488;-43
2022/04/01 06:10:05;;;;;;;2.23;2.03;;;6.30;99.90;;;;;;5073104;28;20440;-44
2022/04/01 06:12:46;;;;;;;2.97;2.70;;;6.30;99.90;;;;;;5073322;28;20890;-43
2022/04/01 06:15:19;;;;;;;2.00;1.47;;;6.20;99.90;;;;;;5073460;28;20479;-43
2022/04/01 06:17:59;;;;;;;1.53;1.23;;;6.10;99.90;;;;;;5072278;28;20476;-44
2022/04/01 06:20:29;;;;;;;2.10;1.90;;;6.10;99.90;;;;;;5072552;28;20966;-43
2022/04/01 06:23:01;;;;;;;1.83;1.73;;;6.10;99.90;;;;;;5072180;28;20452;-46
2022/04/01 06:25:32;;;;;;;1.90;1.67;;;6.20;99.90;;;;;;5072442;28;20531;-46
2022/04/01 06:28:17;;;;;;;2.27;1.90;;;6.30;99.90;;;;;;5072331;28;20531;-44
2022/04/01 06:30:48;;;;;;;2.50;1.90;;;6.30;99.90;;;;;;5071502;28;20840;-43
2022/04/01 06:33:29;;;;;;;1.57;1.47;;;6.30;99.90;;;;;;5071658;28;20479;-44
2022/04/01 06:36:00;;;;;;;1.13;1.03;;;6.30;99.90;;;;;;5071779;28;20475;-43
2022/04/01 06:38:38;;;;;;;1.23;0.90;;;6.30;99.90;;;;;;5071703;28;21069;-47
2022/04/01 06:41:07;;;;;;;0.80;0.80;;;6.30;99.90;;;;;;5071544;28;20495;-43
2022/04/01 06:43:35;;;;;;;1.50;1.40;;;6.30;99.90;;;;;;5071591;28;20452;-43
2022/04/01 06:46:03;;;;;;;2.17;1.43;;;6.30;99.90;;;;;;5069098;28;20445;-43
2022/04/01 06:48:30;;;;;;;1.40;1.30;;;6.30;99.90;;;;;;5071491;28;20475;-44
2022/04/01 06:50:59;;;;;;;2.73;2.53;;;6.30;99.90;;;;;;5071306;28;20496;-43
2022/04/01 06:53:26;;;;;;;3.30;3.10;;;6.30;99.90;;;;;;5071229;28;20519;-45
2022/04/01 06:55:54;;;;;;;0.70;0.50;;;6.40;99.90;;;;;;5071644;28;20448;-43
2022/04/01 06:58:21;;;;;;;2.27;1.73;;;6.40;99.90;;;;;;5071625;28;20484;-44
2022/04/01 07:00:48;;;;;;;0.80;0.80;;;6.40;99.90;;;;;;5070895;28;20498;-43
2022/04/01 07:03:15;;;;;;;1.20;1.10;;;6.40;99.90;;;;;;5071456;28;20468;-43
2022/04/01 07:05:42;;;;;;;2.07;1.87;;;6.40;99.90;;;;;;5071238;28;20452;-46
2022/04/01 07:08:11;;;;;;;3.20;1.90;;;6.50;99.90;;;;;;5071238;28;20455;-44
2022/04/01 07:10:38;;;;;;;1.50;1.40;;;6.50;99.90;;;;;;5071086;28;20487;-43
2022/04/01 07:13:06;;;;;;;2.13;1.33;;;6.40;99.90;;;;;;5071421;28;20521;-43
2022/04/01 07:15:32;;;;;;;1.40;1.30;;;6.50;99.90;;;;;;5071186;28;20476;-43
2022/04/01 07:17:59;;;;;;;1.73;1.37;;;6.50;99.90;;;;;;5071049;28;21075;-44
2022/04/01 07:20:26;;;;;;;1.97;1.77;;;6.50;99.90;;;;;;5027306;28;1247953;-43
2022/04/01 07:22:53;;;;;;;1.60;1.50;;;6.60;99.90;;;;;;5095846;22;20476;-44
2022/04/01 07:25:23;;;;;;;1.70;1.60;;;6.60;99.90;;;;;;5071631;28;20448;-44
2022/04/01 07:27:50;;;;;;;2.57;2.37;;;6.70;99.90;;;;;;5071804;28;20519;-45
2022/04/01 07:30:18;;;;;;;2.20;2.10;;;6.80;99.90;;;;;;5071685;28;20464;-44
2022/04/01 07:32:45;;;;;;;2.20;2.00;;;6.80;99.90;;;;;;5071353;28;20500;-45
2022/04/01 07:35:15;;;;;;;3.13;2.67;;;6.80;99.90;;;;;;5070870;28;20980;-44
2022/04/01 07:37:43;;;;;;;2.60;2.40;;;6.70;99.90;;;;;;5071719;28;20444;-44
2022/04/01 07:40:12;;;;;;;5.30;3.50;;;6.60;99.90;;;;;;5071053;28;20444;-44
2022/04/01 07:42:41;;;;;;;2.60;2.40;;;6.60;99.90;;;;;;5071498;28;21005;-46
2022/04/01 07:45:09;;;;;;;3.23;3.00;;;6.70;99.90;;;;;;5071144;28;20953;-45
2022/04/01 07:47:36;;;;;;;2.40;2.17;;;6.70;99.90;;;;;;5071554;28;20480;-45
2022/04/01 07:50:04;;;;;;;1.23;1.10;;;6.70;99.90;;;;;;5071581;28;20519;-44
2022/04/01 07:52:33;;;;;;;1.50;1.40;;;6.80;99.90;;;;;;5071504;28;20499;-44
2022/04/01 07:55:01;;;;;;;1.30;1.20;;;6.80;99.90;;;;;;5071416;28;20455;-44
2022/04/01 07:57:28;;;;;;;1.27;1.17;;;6.80;99.90;;;;;;5071342;28;20483;-44
2022/04/01 07:59:56;;;;;;;1.47;1.37;;;6.90;99.90;;;;;;5070902;28;20561;-44
2022/04/01 08:02:23;;;;;;;2.23;1.57;;;6.90;99.90;;;;;;5071318;28;20503;-44
2022/04/01 08:04:50;;;;;;;1.93;1.70;;;6.90;99.90;;;;;;5071091;28;20482;-44
2022/04/01 08:07:17;;;;;;;2.50;2.30;;;6.90;99.90;;;;;;5071512;28;20468;-46
2022/04/01 08:09:44;;;;;;;1.80;1.70;;;6.80;99.90;;;;;;5071049;28;20532;-44
2022/04/01 08:12:11;;;;;;;1.93;1.80;;;6.90;99.90;;;;;;5070881;28;20487;-45
2022/04/01 08:14:40;;;;;;;1.60;1.50;;;6.90;99.90;;;;;;5071395;28;20483;-44
2022/04/01 08:17:11;;;;;;;3.17;2.03;;;6.90;99.90;;;;;;5071119;28;20926;-44
2022/04/01 08:19:38;;;;;;;3.60;1.50;;;7.00;99.90;;;;;;5071157;28;20487;-44
2022/04/01 08:22:05;;;;;;;1.70;1.60;;;7.00;99.90;;;;;;5071039;28;20476;-44
2022/04/01 08:24:32;;;;;;;2.47;2.23;;;7.00;99.90;;;;;;5071181;28;20468;-44
2022/04/01 08:27:00;;;;;;;1.07;0.97;;;7.10;99.90;;;;;;5071396;28;20847;-44
2022/04/01 08:29:27;;;;;;;2.90;1.70;;;7.10;99.90;;;;;;5071060;28;20437;-44
2022/04/01 08:31:54;;;;;;;1.30;1.20;;;7.10;99.90;;;;;;5070973;28;20461;-44
2022/04/01 08:34:22;;;;;;;1.80;1.13;;;7.10;99.90;;;;;;5070962;28;20879;-44
2022/04/01 08:36:49;;;;;;;1.10;1.00;;;7.00;99.90;;;;;;5070968;28;20899;-44
2022/04/01 08:39:16;;;;;;;2.47;1.50;;;7.00;99.90;;;;;;5070409;28;20475;-44
2022/04/01 08:41:43;;;;;;;2.50;1.10;;;7.10;99.90;;;;;;5073565;28;20460;-44
2022/04/01 08:44:10;;;;;;;0.90;0.90;;;7.10;99.90;;;;;;5075310;28;20871;-44
2022/04/01 08:46:38;;;;;;;1.50;1.30;;;7.00;99.90;;;;;;5074586;28;20468;-45
2022/04/01 08:49:06;;;;;;;1.30;1.20;;;7.00;99.90;;;;;;5074323;28;20494;-44
2022/04/01 08:51:35;;;;;;;0.83;0.73;;;7.10;99.90;;;;;;5074529;28;20479;-44
2022/04/01 08:54:04;;;;;;;4.77;1.20;;;7.10;99.90;;;;;;5074650;28;20444;-47
2022/04/01 08:56:31;;;;;;;1.83;1.03;;;7.00;99.90;;;;;;5073684;28;20444;-44
2022/04/01 08:58:58;;;;;;;1.20;0.90;;;7.00;99.90;;;;;;5073194;28;20598;-44
2022/04/01 09:01:25;;;;;;;1.47;1.33;;;6.90;99.90;;;;;;5072484;28;20471;-44
2022/04/01 09:03:55;;;;;;;1.37;1.27;;;6.90;99.90;;;;;;5073215;28;20544;-44
2022/04/01 09:06:22;;;;;;;1.93;1.80;;;7.00;99.90;;;;;;5073029;28;20527;-44
2022/04/01 09:08:59;;;;;;;1.40;1.30;;;7.10;99.90;;;;;;5073147;28;20471;-45
2022/04/01 09:11:26;;;;;;;1.77;1.67;;;7.20;99.90;;;;;;5074242;28;20475;-44
2022/04/01 09:13:53;;;;;;;1.57;1.47;;;7.40;99.90;;;;;;5074438;28;20896;-44
2022/04/01 09:16:26;;;;;;;2.00;1.47;;;7.30;99.90;;;;;;5074132;28;21003;-44
2022/04/01 09:18:55;;;;;;;1.70;1.60;;;6.90;99.90;;;;;;5073940;28;20561;-47
2022/04/01 09:21:26;;;;;;;1.50;1.40;;;7.00;99.90;;;;;;5074243;28;20496;-44
2022/04/01 09:23:55;;;;;;;2.47;2.17;;;7.20;99.90;;;;;;5073321;28;20849;-44
2022/04/01 09:26:23;;;;;;;3.90;3.60;;;7.30;99.90;;;;;;5073521;28;20481;-46
2022/04/01 09:28:53;;;;;;;1.40;1.30;;;7.40;99.90;;;;;;5073950;28;20959;-46
2022/04/01 09:31:24;;;;;;;1.33;1.23;;;7.30;99.90;;;;;;5073356;28;20464;-47
2022/04/01 09:33:52;;;;;;;1.10;1.00;;;7.20;99.90;;;;;;5073613;28;20448;-44
2022/04/01 09:36:25;;;;;;;1.30;1.20;;;7.10;99.90;;;;;;5073609;28;20472;-44
2022/04/01 09:38:59;;;;;;;2.30;1.70;;;7.00;99.90;;;;;;5073855;28;20480;-49
2022/04/01 09:41:31;;;;;;;1.87;1.67;;;7.00;99.90;;;;;;5073600;28;20895;-44
2022/04/01 09:44:07;;;;;;;2.30;1.50;;;7.00;99.90;;;;;;5073955;28;20444;-44
2022/04/01 09:46:35;;;;;;;1.93;1.83;;;7.00;99.90;;;;;;5073241;28;20476;-45
2022/04/01 09:49:02;;;;;;;2.57;2.20;;;7.00;99.90;;;;;;5073207;28;20522;-47
2022/04/01 09:51:33;;;;;;;2.83;1.80;;;7.00;99.90;;;;;;5073343;28;20488;-44
2022/04/01 09:54:03;;;;;;;1.87;1.77;;;7.00;99.90;;;;;;5072819;28;20480;-44
2022/04/01 09:56:41;;;;;;;2.17;1.97;;;7.00;99.90;;;;;;5073596;28;20934;-47
2022/04/01 09:59:09;;;;;;;2.77;2.57;;;7.00;99.90;;;;;;5073652;28;20559;-48
2022/04/01 10:01:37;;;;;;;1.87;1.77;;;7.00;99.90;;;;;;5072980;28;20468;-44
2022/04/01 10:04:04;;;;;;;1.93;1.70;;;7.20;99.90;;;;;;5073455;28;20531;-44
2022/04/01 10:06:33;;;;;;;2.10;1.70;;;7.30;99.90;;;;;;5072352;28;20594;-45
2022/04/01 10:09:04;;;;;;;1.50;1.40;;;7.40;99.90;;;;;;5071662;28;20472;-44
2022/04/01 10:11:32;;;;;;;1.80;1.50;;;7.20;99.90;;;;;;5071594;28;20498;-46
2022/04/01 10:14:03;;;;;;;1.87;1.77;;;7.30;99.90;;;;;;5071872;28;20448;-44
2022/04/01 10:16:33;;;;;;;1.97;1.87;;;7.50;99.90;;;;;;5071658;28;20444;-45
2022/04/01 10:19:07;;;;;;;1.93;1.60;;;7.60;99.90;;;;;;5071213;28;20476;-44
2022/04/01 10:21:35;;;;;;;1.80;1.57;;;7.50;99.90;;;;;;5071524;28;20499;-44
2022/04/01 10:24:11;;;;;;;2.27;2.10;;;7.50;99.90;;;;;;5072284;28;20444;-45
2022/04/01 10:26:45;;;;;;;1.90;1.50;;;7.70;99.90;;;;;;5072495;28;20463;-48
2022/04/01 10:29:13;;;;;;;1.57;1.47;;;7.80;99.90;;;;;;5071989;28;20515;-45
2022/04/01 10:31:41;;;;;;;2.10;2.00;;;7.80;99.90;;;;;;5071652;28;20537;-48
2022/04/01 10:34:22;;;;;;;1.60;1.50;;;7.80;99.90;;;;;;5072382;28;20519;-45
2022/04/01 10:36:59;;;;;;;4.07;3.37;;;7.80;99.90;;;;;;5068360;28;20445;-44
2022/04/01 10:39:29;;;;;;;3.13;2.80;;;7.60;99.90;;;;;;5068051;28;20568;-48
2022/04/01 10:42:13;;;;;;;1.50;1.40;;;7.50;99.90;;;;;;5072170;28;20821;-44
2022/04/01 10:44:48;;;;;;;2.50;1.70;;;7.40;99.90;;;;;;5071896;28;20507;-44
2022/04/01 10:47:15;;;;;;;3.60;2.40;;;7.60;99.90;;;;;;5071580;28;20475;-44
2022/04/01 10:52:27;;;;;;;1.30;1.13;;;7.80;99.90;;;;;;5052146;28;20437;-44
2022/04/01 10:55:16;;;;;;;1.77;1.20;;;7.90;99.90;;;;;;5052108;28;20950;-45
2022/04/01 10:57:45;;;;;;;1.57;1.40;;;7.90;99.90;;;;;;5052112;28;20529;-44
2022/04/01 11:00:15;;;;;;;1.40;1.00;;;8.00;99.90;;;;;;5052076;28;20509;-47
2022/04/01 11:02:44;;;;;;;2.63;2.23;;;8.20;99.90;;;;;;5052447;28;20461;-44
2022/04/01 11:05:30;;;;;;;2.60;1.80;;;8.20;99.90;;;;;;5051594;28;20846;-48
2022/04/01 11:08:20;;;;;;;2.80;1.47;;;8.20;99.90;;;;;;5050440;28;20449;-45
2022/04/01 11:11:08;;;;;;;1.63;1.53;;;8.20;99.90;;;;;;5051774;28;20495;-44
2022/04/01 11:13:36;;;;;;;1.73;1.37;;;8.10;99.90;;;;;;5050368;28;20528;-45
2022/04/01 11:16:15;;;;;;;1.57;1.37;;;8.10;99.90;;;;;;5051796;28;20445;-47
2022/04/01 11:19:19;;;;;;;1.80;1.70;;;8.20;99.90;;;;;;5051992;28;20452;-45
2022/04/01 11:21:47;;;;;;;1.90;1.60;;;8.20;99.90;;;;;;4988954;28;20530;-46
2022/04/01 11:24:30;;;;;;;3.43;1.43;;;8.30;99.90;;;;;;5039439;28;20457;-46
2022/04/01 11:27:07;;;;;;;2.80;1.60;;;8.40;99.90;;;;;;5050284;28;20906;-45
2022/04/01 11:29:34;;;;;;;1.43;1.33;;;8.30;99.90;;;;;;5049194;28;20435;-44
2022/04/01 11:32:07;;;;;;;1.33;1.13;;;8.50;99.90;;;;;;5048863;28;20500;-46
2022/04/01 11:34:55;;;;;;;1.40;1.30;;;8.50;99.90;;;;;;5049296;28;20452;-44
2022/04/01 11:37:22;;;;;;;1.70;1.60;;;8.60;99.90;;;;;;5049983;28;20774;-44
2022/04/01 11:39:49;;;;;;;1.57;1.47;;;8.60;99.90;;;;;;5050310;28;20564;-44
2022/04/01 11:42:18;;;;;;;2.13;1.90;;;8.60;99.90;;;;;;5050425;28;20519;-44
2022/04/01 11:44:56;;;;;;;2.80;1.70;;;8.50;99.90;;;;;;5050330;28;20488;-49
2022/04/01 11:47:32;;;;;;;2.33;1.67;;;8.50;99.90;;;;;;5050479;28;20449;-47
2022/04/01 11:50:07;;;;;;;2.90;1.70;;;8.60;99.90;;;;;;5050317;28;20540;-48
2022/04/01 11:52:39;;;;;;;1.13;1.03;;;8.60;99.90;;;;;;5050185;28;20552;-44
2022/04/01 11:55:12;;;;;;;2.80;1.90;;;8.50;99.90;;;;;;5050131;28;20456;-45
2022/04/01 11:57:41;;;;;;;2.50;2.10;;;8.30;99.90;;;;;;5050265;28;20870;-45
2022/04/01 12:00:12;;;;;;;2.53;1.40;;;8.30;99.90;;;;;;5049863;28;20516;-47
2022/04/01 12:02:39;;;;;;;1.67;1.20;;;8.40;99.90;;;;;;5050097;28;20541;-44
2022/04/01 12:05:07;;;;;;;1.73;1.63;;;8.20;99.90;;;;;;5049384;28;20977;-47
2022/04/01 12:10:19;;;;;;;10.07;8.30;;;8.30;99.90;;;;;;5049939;28;20491;-46
2022/04/01 12:12:55;;;;;;;3.60;2.73;;;8.40;99.90;;;;;;5050171;28;20918;-44
2022/04/01 12:15:33;;;;;;;3.23;2.00;;;8.40;99.90;;;;;;5049442;28;20981;-44
2022/04/01 12:18:00;;;;;;;12.33;7.57;;;8.40;99.90;;;;;;5049848;28;20984;-46
2022/04/01 12:20:28;;;;;;;12.10;8.20;;;8.40;99.90;;;;;;5049675;28;21027;-48
2022/04/01 12:22:57;;;;;;;3.27;2.50;;;8.50;99.90;;;;;;5049918;28;20477;-45
2022/04/01 12:25:24;;;;;;;2.00;1.90;;;8.60;99.90;;;;;;5049931;28;20488;-46
2022/04/01 12:27:57;;;;;;;1.43;1.33;;;8.60;99.90;;;;;;5050461;28;20525;-45
2022/04/01 12:30:32;;;;;;;3.63;3.43;;;8.60;99.90;;;;;;5049734;28;20475;-47
2022/04/01 12:33:02;;;;;;;7.90;5.80;;;8.60;99.90;;;;;;5049556;28;20511;-45
2022/04/01 12:35:29;;;;;;;6.20;5.67;;;8.60;99.90;;;;;;5049588;28;20529;-46
2022/04/01 12:38:11;;;;;;;2.10;1.90;;;8.60;99.90;;;;;;5050123;28;20978;-45
2022/04/01 12:40:56;;;;;;;2.67;2.47;;;8.60;99.90;;;;;;5049701;28;20542;-44
2022/04/01 12:43:38;;;;;;;4.50;1.83;;;8.40;99.90;;;;;;5049761;28;20472;-46
2022/04/01 12:46:07;;;;;;;2.63;2.43;;;8.40;99.90;;;;;;5049901;28;20452;-48
2022/04/01 12:48:41;;;;;;;1.50;1.40;;;8.20;99.90;;;;;;5049653;28;20473;-44
2022/04/01 12:51:08;;;;;;;1.80;1.70;;;8.10;99.90;;;;;;5049469;28;20472;-46
2022/04/01 12:53:36;;;;;;;1.70;1.60;;;8.00;99.90;;;;;;5049706;28;20473;-46
2022/04/01 12:56:20;;;;;;;1.70;1.50;;;8.00;99.90;;;;;;5049753;28;20933;-44
2022/04/01 12:58:49;;;;;;;1.40;1.30;;;8.20;99.90;;;;;;5049868;28;20520;-45
2022/04/01 13:01:21;;;;;;;2.20;2.00;;;8.30;99.90;;;;;;5049457;28;20580;-47
2022/04/01 13:03:48;;;;;;;1.30;1.17;;;8.20;99.90;;;;;;5049638;28;20445;-44
2022/04/01 13:06:15;;;;;;;1.50;1.40;;;8.40;99.90;;;;;;5049626;28;20444;-44
2022/04/01 13:08:43;;;;;;;1.97;1.77;;;8.10;99.90;;;;;;5050406;28;20539;-45
2022/04/01 13:11:16;;;;;;;1.00;1.00;;;8.10;99.90;;;;;;5049896;28;20460;-45
2022/04/01 13:13:53;;;;;;;1.63;1.43;;;7.80;99.90;;;;;;5050176;28;20457;-47
2022/04/01 13:16:20;;;;;;;1.40;1.30;;;7.50;99.90;;;;;;5050581;28;20448;-44
2022/04/01 13:18:47;;;;;;;1.73;1.63;;;7.50;99.90;;;;;;5050627;28;21036;-46